Time;durP1;ratioP1;P1;durP2;ratioP2;P2;SDS_P1;SDS_P2;PMS_P1;PMS_P2;Temp;Humidity;BMP_temperature;BMP_pressure;BME280_temperature;BME280_humidity;BME280_pressure;Samples;Min_cycle;Max_cycle;Signal;HPM_P1;HPM_P2
2023/05/17 00:00:29;;;;;;;;;;;11.70;99.90;;;;;;5026006;28;19905;-79
2023/05/17 00:02:58;;;;;;;;;;;11.70;99.90;;;;;;5000021;28;19909;-78
2023/05/17 00:05:25;;;;;;;;;;;11.60;99.90;;;;;;5024620;28;19915;-77
2023/05/17 00:07:54;;;;;;;;;;;11.60;99.90;;;;;;4999525;28;19955;-79
2023/05/17 00:10:24;;;;;;;;;;;11.60;99.90;;;;;;5005798;28;19905;-79
2023/05/17 00:12:49;;;;;;;;;;;11.70;99.90;;;;;;5018129;28;20270;-79
2023/05/17 00:15:16;;;;;;;;;;;11.70;99.90;;;;;;5022903;28;19913;-79
2023/05/17 00:17:45;;;;;;;;;;;11.70;99.90;;;;;;5007236;28;20347;-79
2023/05/17 00:20:11;;;;;;;;;;;11.70;99.90;;;;;;5028110;28;20008;-78
2023/05/17 00:22:39;;;;;;;;;;;11.70;99.90;;;;;;5025643;28;20488;-78
2023/05/17 00:25:05;;;;;;;;;;;11.60;99.90;;;;;;5015206;28;19912;-78
2023/05/17 00:27:33;;;;;;;;;;;11.60;99.90;;;;;;5026118;28;19920;-78
2023/05/17 00:29:58;;;;;;;;;;;11.70;99.90;;;;;;5019600;28;19920;-78
2023/05/17 00:32:25;;;;;;;;;;;11.70;99.90;;;;;;5032329;28;19913;-78
2023/05/17 00:34:55;;;;;;;;;;;11.60;99.90;;;;;;5025933;28;19912;-79
2023/05/17 00:37:35;;;;;;;;;;;11.60;99.90;;;;;;5025595;28;19912;-80
2023/05/17 00:40:04;;;;;;;;;;;11.60;99.90;;;;;;5022964;28;19913;-79
2023/05/17 00:42:29;;;;;;;;;;;11.60;99.90;;;;;;5005618;28;20235;-79
2023/05/17 00:44:56;;;;;;;;;;;11.60;99.90;;;;;;5005411;28;19913;-78
2023/05/17 00:47:23;;;;;;;;;;;11.60;99.90;;;;;;5025597;28;19905;-79
2023/05/17 00:49:48;;;;;;;;;;;11.50;99.90;;;;;;5003755;28;19913;-79
2023/05/17 00:52:19;;;;;;;;;;;11.50;99.90;;;;;;5026340;28;20672;-79
2023/05/17 00:54:54;;;;;;;;;;;11.50;99.90;;;;;;5025883;28;20043;-78
2023/05/17 00:57:21;;;;;;;;;;;11.40;99.90;;;;;;5025723;28;19909;-78
2023/05/17 00:59:54;;;;;;;;;;;11.40;99.90;;;;;;5021812;28;19966;-78
2023/05/17 01:02:21;;;;;;;;;;;11.40;99.90;;;;;;5024954;28;19905;-78
2023/05/17 01:04:49;;;;;;;;;;;11.40;99.90;;;;;;5023656;28;20275;-78
2023/05/17 01:07:30;;;;;;;;;;;11.40;99.90;;;;;;5003238;28;20791;-77
2023/05/17 01:10:02;;;;;;;;;;;11.40;99.90;;;;;;5023277;28;19992;-78
2023/05/17 01:12:51;;;;;;;;;;;11.40;99.90;;;;;;5026897;28;19916;-79
2023/05/17 01:15:26;;;;;;;;;;;11.30;99.90;;;;;;5021941;28;19920;-79
2023/05/17 01:18:12;;;;;;;;;;;11.30;99.90;;;;;;5027710;28;19909;-78
2023/05/17 01:20:42;;;;;;;;;;;11.40;99.90;;;;;;5024879;28;19904;-79
2023/05/17 01:26:30;;;;;;;;;;;11.30;99.90;;;;;;5024971;28;19986;-79
2023/05/17 01:29:03;;;;;;;;;;;11.30;99.90;;;;;;4971248;28;20004;-77
2023/05/17 01:31:48;;;;;;;;;;;11.30;99.90;;;;;;5021197;28;20270;-78
2023/05/17 01:34:22;;;;;;;;;;;11.30;99.90;;;;;;5002645;28;20326;-77
2023/05/17 01:36:48;;;;;;;;;;;11.30;99.90;;;;;;5027316;28;19905;-78
2023/05/17 01:39:19;;;;;;;;;;;11.30;99.90;;;;;;5009656;28;19919;-77
2023/05/17 01:41:55;;;;;;;;;;;11.30;99.90;;;;;;5004957;28;19919;-78
2023/05/17 01:44:43;;;;;;;;;;;11.30;99.90;;;;;;5024988;28;19905;-77
2023/05/17 01:47:12;;;;;;;;;;;11.20;99.90;;;;;;5023569;28;19950;-77
2023/05/17 01:49:39;;;;;;;;;;;11.30;99.90;;;;;;5030192;28;19913;-77
2023/05/17 01:52:17;;;;;;;;;;;11.20;99.90;;;;;;5000758;28;19913;-78
2023/05/17 01:55:01;;;;;;;;;;;11.20;99.90;;;;;;5021831;28;19954;-77
2023/05/17 01:57:31;;;;;;;;;;;11.20;99.90;;;;;;5029224;28;19984;-77
2023/05/17 02:00:01;;;;;;;;;;;11.20;99.90;;;;;;5029024;28;19909;-77
2023/05/17 02:02:32;;;;;;;;;;;11.20;99.90;;;;;;5027237;28;19924;-78
2023/05/17 02:05:04;;;;;;;;;;;11.10;99.90;;;;;;5023883;28;20047;-78
2023/05/17 02:07:31;;;;;;;;;;;11.10;99.90;;;;;;5030200;28;19915;-77
2023/05/17 02:10:00;;;;;;;;;;;11.10;99.90;;;;;;5008090;28;19905;-78
2023/05/17 02:12:29;;;;;;;;;;;11.10;99.90;;;;;;5030515;28;19963;-77
2023/05/17 02:15:00;;;;;;;;;;;11.10;99.90;;;;;;5005216;28;19909;-78
2023/05/17 02:17:27;;;;;;;;;;;11.10;99.90;;;;;;5020203;28;19937;-78
2023/05/17 02:19:54;;;;;;;;;;;11.00;99.90;;;;;;5028557;28;19904;-79
2023/05/17 02:22:32;;;;;;;;;;;11.00;99.90;;;;;;5009450;28;19905;-78
2023/05/17 02:24:58;;;;;;;;;;;11.10;99.90;;;;;;5029123;28;19959;-78
2023/05/17 02:27:24;;;;;;;;;;;11.00;99.90;;;;;;5028576;28;19956;-78
2023/05/17 02:30:03;;;;;;;;;;;11.00;99.90;;;;;;5010546;28;20348;-78
2023/05/17 02:32:35;;;;;;;;;;;11.00;99.90;;;;;;5006855;28;19917;-78
2023/05/17 02:35:00;;;;;;;;;;;11.00;99.90;;;;;;5026218;28;19990;-78
2023/05/17 02:37:27;;;;;;;;;;;10.90;99.90;;;;;;5024687;28;19948;-77
2023/05/17 02:39:52;;;;;;;;;;;10.90;99.90;;;;;;5025984;28;19905;-77
2023/05/17 02:42:18;;;;;;;;;;;10.90;99.90;;;;;;5008549;28;19912;-77
2023/05/17 02:44:44;;;;;;;;;;;10.80;99.90;;;;;;5027745;28;19999;-78
2023/05/17 02:47:11;;;;;;;;;;;10.80;99.90;;;;;;5010795;28;19909;-76
2023/05/17 02:49:36;;;;;;;;;;;10.80;99.90;;;;;;5026976;28;19920;-77
2023/05/17 02:52:03;;;;;;;;;;;10.80;99.90;;;;;;5023923;28;19959;-77
2023/05/17 02:54:29;;;;;;;;;;;10.80;99.90;;;;;;5010028;28;20003;-78
2023/05/17 02:56:56;;;;;;;;;;;10.80;99.90;;;;;;5021073;28;19909;-78
2023/05/17 02:59:23;;;;;;;;;;;10.80;99.90;;;;;;5023189;28;19944;-78
2023/05/17 03:01:54;;;;;;;;;;;10.80;99.90;;;;;;5023132;28;19915;-77
2023/05/17 03:04:21;;;;;;;;;;;10.80;99.90;;;;;;5028218;28;19959;-77
2023/05/17 03:06:46;;;;;;;;;;;10.80;99.90;;;;;;5003123;28;19913;-77
2023/05/17 03:09:12;;;;;;;;;;;10.70;99.90;;;;;;5028886;28;19916;-77
2023/05/17 03:11:46;;;;;;;;;;;10.70;99.90;;;;;;5001574;28;19912;-77
2023/05/17 03:14:12;;;;;;;;;;;10.70;99.90;;;;;;5031966;28;20351;-78
2023/05/17 03:16:38;;;;;;;;;;;10.70;99.90;;;;;;5007818;28;19905;-78
2023/05/17 03:19:08;;;;;;;;;;;10.70;99.90;;;;;;5006153;28;19999;-77
2023/05/17 03:21:35;;;;;;;;;;;10.70;99.90;;;;;;5027739;28;19969;-78
2023/05/17 03:24:01;;;;;;;;;;;10.70;99.90;;;;;;5029811;28;19959;-79
2023/05/17 03:26:27;;;;;;;;;;;10.70;99.90;;;;;;5029940;28;19905;-78
2023/05/17 03:28:54;;;;;;;;;;;10.60;99.90;;;;;;5013837;28;20329;-77
2023/05/17 03:31:22;;;;;;;;;;;10.60;99.90;;;;;;5004893;28;20292;-78
2023/05/17 03:33:50;;;;;;;;;;;10.60;99.90;;;;;;5028299;28;20584;-77
2023/05/17 03:36:17;;;;;;;;;;;10.60;99.90;;;;;;5030704;28;19920;-77
2023/05/17 03:38:44;;;;;;;;;;;10.50;99.90;;;;;;5008287;28;20377;-77
2023/05/17 03:41:19;;;;;;;;;;;10.50;99.90;;;;;;5025859;28;19905;-78
2023/05/17 03:43:47;;;;;;;;;;;10.50;99.90;;;;;;5009057;28;19924;-77
2023/05/17 03:46:13;;;;;;;;;;;10.50;99.90;;;;;;5029190;28;19905;-77
2023/05/17 03:48:45;;;;;;;;;;;10.50;99.90;;;;;;5029684;28;20269;-78
2023/05/17 03:51:11;;;;;;;;;;;10.50;99.90;;;;;;5027532;28;19948;-77
2023/05/17 03:53:41;;;;;;;;;;;10.50;99.90;;;;;;5007716;28;19959;-77
2023/05/17 03:56:14;;;;;;;;;;;10.40;99.90;;;;;;5028381;28;20369;-77
2023/05/17 03:58:44;;;;;;;;;;;10.40;99.90;;;;;;5007171;28;19905;-77
2023/05/17 04:01:10;;;;;;;;;;;10.40;99.90;;;;;;5023388;28;19905;-78
2023/05/17 04:03:38;;;;;;;;;;;10.30;99.90;;;;;;5026995;28;19999;-78
2023/05/17 04:06:07;;;;;;;;;;;10.30;99.90;;;;;;5006958;28;20514;-77
2023/05/17 04:08:35;;;;;;;;;;;10.30;99.90;;;;;;5030415;28;19988;-77
2023/05/17 04:11:12;;;;;;;;;;;10.20;99.90;;;;;;5027648;28;19913;-78
2023/05/17 04:13:44;;;;;;;;;;;10.20;99.90;;;;;;5031207;28;19983;-77
2023/05/17 04:16:10;;;;;;;;;;;10.20;99.90;;;;;;5020266;28;19991;-77
2023/05/17 04:18:44;;;;;;;;;;;10.20;99.90;;;;;;5026396;28;20615;-77
2023/05/17 04:21:09;;;;;;;;;;;10.20;99.90;;;;;;5001407;28;19912;-77
2023/05/17 04:23:37;;;;;;;;;;;10.20;99.90;;;;;;5026167;28;19908;-77
2023/05/17 04:26:09;;;;;;;;;;;10.20;99.90;;;;;;5029899;28;19987;-77
2023/05/17 04:28:35;;;;;;;;;;;10.10;99.90;;;;;;5025992;28;20500;-77
2023/05/17 04:31:05;;;;;;;;;;;10.10;99.90;;;;;;5004642;28;20002;-77
2023/05/17 04:33:31;;;;;;;;;;;10.10;99.90;;;;;;5026486;28;19995;-77
2023/05/17 04:35:58;;;;;;;;;;;10.00;99.90;;;;;;5023125;28;20044;-76
2023/05/17 04:38:31;;;;;;;;;;;10.00;99.90;;;;;;5025638;28;19920;-77
2023/05/17 04:41:03;;;;;;;;;;;10.00;99.90;;;;;;4999130;28;19912;-77
2023/05/17 04:43:37;;;;;;;;;;;10.00;99.90;;;;;;5028607;28;19924;-76
2023/05/17 04:46:07;;;;;;;;;;;9.90;99.90;;;;;;5020535;28;20697;-76
2023/05/17 04:48:34;;;;;;;;;;;9.90;99.90;;;;;;5005896;28;20014;-75
2023/05/17 04:51:04;;;;;;;;;;;9.90;99.90;;;;;;5021236;28;19927;-76
2023/05/17 04:53:30;;;;;;;;;;;9.90;99.90;;;;;;5008097;28;19971;-76
2023/05/17 04:55:57;;;;;;;;;;;9.90;99.90;;;;;;5008867;28;19909;-76
2023/05/17 04:58:28;;;;;;;;;;;9.80;99.90;;;;;;5025697;28;19912;-75
2023/05/17 05:00:53;;;;;;;;;;;9.80;99.90;;;;;;5020588;28;20376;-75
2023/05/17 05:03:21;;;;;;;;;;;9.70;99.90;;;;;;5006399;28;19913;-76
2023/05/17 05:05:48;;;;;;;;;;;9.70;99.90;;;;;;5019509;28;19913;-77
2023/05/17 05:08:14;;;;;;;;;;;9.70;99.90;;;;;;5012078;28;19947;-76
2023/05/17 05:10:46;;;;;;;;;;;9.70;99.90;;;;;;5025506;28;19947;-76
2023/05/17 05:13:14;;;;;;;;;;;9.70;99.90;;;;;;5005341;28;19912;-76
2023/05/17 05:15:40;;;;;;;;;;;9.70;99.90;;;;;;5022156;28;19954;-77
2023/05/17 05:18:12;;;;;;;;;;;9.70;99.90;;;;;;5017942;28;19909;-76
2023/05/17 05:20:38;;;;;;;;;;;9.60;99.90;;;;;;5024821;28;19911;-76
2023/05/17 05:23:06;;;;;;;;;;;9.60;99.90;;;;;;5026082;28;19904;-77
2023/05/17 05:25:32;;;;;;;;;;;9.60;99.90;;;;;;5025410;28;19905;-76
2023/05/17 05:27:58;;;;;;;;;;;9.70;99.90;;;;;;5033939;28;19916;-83
2023/05/17 05:30:31;;;;;;;;;;;9.90;99.90;;;;;;5026457;28;19909;-84
2023/05/17 05:32:59;;;;;;;;;;;10.10;99.90;;;;;;5041943;28;19916;-84
2023/05/17 05:35:28;;;;;;;;;;;10.20;99.90;;;;;;5029529;28;19909;-85
2023/05/17 05:37:57;;;;;;;;;;;10.20;99.90;;;;;;5025005;28;19912;-76
2023/05/17 05:40:33;;;;;;;;;;;10.30;99.90;;;;;;5024783;28;19980;-76
2023/05/17 05:43:03;;;;;;;;;;;10.20;99.90;;;;;;5008922;28;20660;-76
2023/05/17 05:45:30;;;;;;;;;;;10.00;99.90;;;;;;5006727;28;19905;-77
2023/05/17 05:48:04;;;;;;;;;;;9.90;99.90;;;;;;5013033;28;19921;-76
2023/05/17 05:50:33;;;;;;;;;;;9.70;99.90;;;;;;5006927;28;20523;-77
2023/05/17 05:53:05;;;;;;;;;;;9.70;99.90;;;;;;5030264;28;20350;-76
2023/05/17 05:55:31;;;;;;;;;;;9.80;99.90;;;;;;5025599;28;19917;-76
2023/05/17 05:58:00;;;;;;;;;;;9.70;99.90;;;;;;5016909;28;19905;-76
2023/05/17 06:00:28;;;;;;;;;;;9.70;99.90;;;;;;5025994;28;20318;-77
2023/05/17 06:03:02;;;;;;;;;;;9.70;99.90;;;;;;5030242;28;19912;-76
2023/05/17 06:05:28;;;;;;;;;;;9.80;99.90;;;;;;5026057;28;20497;-76
2023/05/17 06:08:08;;;;;;;;;;;9.70;99.90;;;;;;5015590;28;19905;-77
2023/05/17 06:10:41;;;;;;;;;;;9.70;99.90;;;;;;5023574;28;19988;-76
2023/05/17 06:13:06;;;;;;;;;;;9.70;99.90;;;;;;5028675;28;19913;-76
2023/05/17 06:15:41;;;;;;;;;;;9.70;99.90;;;;;;5011140;28;19916;-76
2023/05/17 06:18:14;;;;;;;;;;;9.70;99.90;;;;;;5001196;28;19911;-76
2023/05/17 06:20:45;;;;;;;;;;;9.70;99.90;;;;;;5031293;28;19905;-77
2023/05/17 06:23:18;;;;;;;;;;;9.80;99.90;;;;;;5027045;28;19982;-77
2023/05/17 06:25:46;;;;;;;;;;;9.90;99.90;;;;;;5026516;28;20309;-77
2023/05/17 06:28:17;;;;;;;;;;;9.90;99.90;;;;;;5034316;28;19912;-76
2023/05/17 06:30:43;;;;;;;;;;;9.90;99.90;;;;;;5002301;28;20374;-77
2023/05/17 06:33:12;;;;;;;;;;;9.90;99.90;;;;;;5026774;28;19952;-76
2023/05/17 06:35:39;;;;;;;;;;;10.00;99.90;;;;;;5001035;28;20265;-77
2023/05/17 06:38:10;;;;;;;;;;;9.90;99.90;;;;;;5031538;28;19998;-76
2023/05/17 06:40:38;;;;;;;;;;;9.90;99.90;;;;;;5022890;28;20348;-76
2023/05/17 06:43:06;;;;;;;;;;;9.90;99.90;;;;;;5032339;28;19947;-76
2023/05/17 06:45:33;;;;;;;;;;;9.90;99.90;;;;;;5028056;28;19909;-76
2023/05/17 06:47:58;;;;;;;;;;;10.00;99.90;;;;;;5024631;28;19948;-76
2023/05/17 06:50:27;;;;;;;;;;;10.00;99.90;;;;;;5027371;28;19964;-75
2023/05/17 06:52:54;;;;;;;;;;;9.90;99.90;;;;;;5025109;28;19913;-76
2023/05/17 06:55:21;;;;;;;;;;;9.90;99.90;;;;;;5024619;28;19905;-76
2023/05/17 06:57:46;;;;;;;;;;;10.00;99.90;;;;;;5009706;28;19959;-76
2023/05/17 07:00:18;;;;;;;;;;;10.00;99.90;;;;;;5004963;28;19905;-76
2023/05/17 07:02:51;;;;;;;;;;;10.10;99.90;;;;;;5031881;28;19905;-76
2023/05/17 07:05:20;;;;;;;;;;;10.10;99.90;;;;;;5009834;28;20290;-75
2023/05/17 07:07:45;;;;;;;;;;;10.20;99.90;;;;;;5027548;28;19920;-76
2023/05/17 07:10:19;;;;;;;;;;;10.10;99.90;;;;;;5031915;28;19904;-76
2023/05/17 07:12:46;;;;;;;;;;;10.10;99.90;;;;;;5031256;28;19913;-75
2023/05/17 07:15:18;;;;;;;;;;;10.10;99.90;;;;;;5030906;28;19939;-76
2023/05/17 07:17:49;;;;;;;;;;;10.10;99.90;;;;;;5023212;28;20515;-76
2023/05/17 07:20:15;;;;;;;;;;;10.10;99.90;;;;;;5025949;28;19919;-76
2023/05/17 07:22:41;;;;;;;;;;;10.10;99.90;;;;;;5027124;28;19940;-76
2023/05/17 07:25:07;;;;;;;;;;;10.00;99.90;;;;;;5002188;28;19951;-76
2023/05/17 07:27:44;;;;;;;;;;;10.00;99.90;;;;;;5029804;28;19904;-76
2023/05/17 07:30:10;;;;;;;;;;;10.00;99.90;;;;;;5004557;28;19905;-76
2023/05/17 07:32:37;;;;;;;;;;;10.00;99.90;;;;;;5004992;28;19943;-76
2023/05/17 07:35:03;;;;;;;;;;;10.00;99.90;;;;;;5028642;28;19904;-77
2023/05/17 07:37:30;;;;;;;;;;;10.00;99.90;;;;;;5012048;28;19913;-76
2023/05/17 07:39:56;;;;;;;;;;;10.00;99.90;;;;;;5021592;28;19915;-76
2023/05/17 07:42:29;;;;;;;;;;;10.00;99.90;;;;;;5022096;28;19909;-76
2023/05/17 07:44:55;;;;;;;;;;;10.00;99.90;;;;;;5026458;28;19916;-76
2023/05/17 07:47:22;;;;;;;;;;;10.10;99.90;;;;;;5004789;28;19913;-76
2023/05/17 07:49:47;;;;;;;;;;;10.10;99.90;;;;;;5031881;28;19920;-76
2023/05/17 07:52:13;;;;;;;;;;;10.10;99.90;;;;;;5000125;28;19946;-76
2023/05/17 07:54:38;;;;;;;;;;;10.10;99.90;;;;;;5027414;28;20292;-76
2023/05/17 07:57:06;;;;;;;;;;;10.10;99.90;;;;;;5005581;28;19913;-77
2023/05/17 07:59:33;;;;;;;;;;;10.10;99.90;;;;;;5025703;28;19909;-76
2023/05/17 08:01:58;;;;;;;;;;;10.10;99.90;;;;;;5030959;28;19913;-76
2023/05/17 08:04:26;;;;;;;;;;;10.30;99.90;;;;;;5026829;28;19932;-76
2023/05/17 08:06:54;;;;;;;;;;;10.30;99.90;;;;;;5024823;28;20452;-77
2023/05/17 08:09:19;;;;;;;;;;;10.50;99.90;;;;;;5027653;28;19937;-77
2023/05/17 08:11:45;;;;;;;;;;;10.60;99.90;;;;;;5002917;28;21419;-76
2023/05/17 08:14:14;;;;;;;;;;;10.60;99.90;;;;;;4997896;28;19908;-76
2023/05/17 08:16:47;;;;;;;;;;;10.60;99.90;;;;;;5021602;28;19911;-76
2023/05/17 08:19:13;;;;;;;;;;;10.80;99.90;;;;;;5016341;28;19909;-76
2023/05/17 08:21:40;;;;;;;;;;;11.10;99.90;;;;;;5020210;28;19905;-77
2023/05/17 08:24:06;;;;;;;;;;;11.40;99.90;;;;;;5024348;28;19909;-77
2023/05/17 08:26:41;;;;;;;;;;;11.70;99.90;;;;;;5022363;28;19913;-76
2023/05/17 08:29:10;;;;;;;;;;;12.00;99.90;;;;;;5024439;28;19909;-76
2023/05/17 08:31:37;;;;;;;;;;;12.20;99.90;;;;;;5000466;28;19920;-77
2023/05/17 08:34:04;;;;;;;;;;;12.20;99.90;;;;;;5021535;28;19927;-76
2023/05/17 08:36:36;;;;;;;;;;;12.40;99.90;;;;;;5028543;28;19913;-76
2023/05/17 08:39:03;;;;;;;;;;;12.30;99.90;;;;;;5018937;28;19927;-76
2023/05/17 08:41:31;;;;;;;;;;;12.20;99.90;;;;;;5003531;28;19920;-76
2023/05/17 08:44:00;;;;;;;;;;;12.20;99.90;;;;;;5028539;28;19905;-76
2023/05/17 08:46:27;;;;;;;;;;;12.10;99.90;;;;;;5009194;28;19905;-76
2023/05/17 08:49:00;;;;;;;;;;;12.30;99.90;;;;;;5018023;28;20000;-76
2023/05/17 08:51:27;;;;;;;;;;;12.60;99.90;;;;;;5004835;28;19908;-76
2023/05/17 08:53:54;;;;;;;;;;;12.90;99.90;;;;;;5018912;28;19913;-76
2023/05/17 08:56:28;;;;;;;;;;;12.70;99.90;;;;;;5026598;28;19912;-76
2023/05/17 08:58:56;;;;;;;;;;;13.00;99.90;;;;;;5017986;28;19996;-76
2023/05/17 09:01:27;;;;;;;;;;;13.10;99.90;;;;;;5022145;28;19916;-76
2023/05/17 09:03:53;;;;;;;;;;;13.20;99.90;;;;;;5019078;28;19921;-77
2023/05/17 09:06:20;;;;;;;;;;;13.10;99.90;;;;;;5023792;28;19905;-76
2023/05/17 09:08:49;;;;;;;;;;;12.90;99.90;;;;;;5024314;28;20733;-77
2023/05/17 09:11:18;;;;;;;;;;;12.80;99.90;;;;;;5021449;28;19920;-76
2023/05/17 09:13:43;;;;;;;;;;;12.70;99.90;;;;;;4998343;28;20351;-76
2023/05/17 09:16:14;;;;;;;;;;;12.60;99.90;;;;;;5006862;28;19959;-77
2023/05/17 09:18:40;;;;;;;;;;;12.60;99.90;;;;;;5006988;28;19956;-76
2023/05/17 09:21:08;;;;;;;;;;;12.60;99.90;;;;;;4999533;28;19925;-77
2023/05/17 09:23:42;;;;;;;;;;;12.70;99.90;;;;;;5027179;28;19959;-77
2023/05/17 09:26:09;;;;;;;;;;;12.70;99.90;;;;;;5023607;28;19905;-76
2023/05/17 09:28:39;;;;;;;;;;;12.50;99.90;;;;;;5025939;28;19935;-76
2023/05/17 09:31:07;;;;;;;;;;;12.40;99.90;;;;;;5003018;28;20355;-77
2023/05/17 09:33:34;;;;;;;;;;;12.20;99.90;;;;;;5001928;28;19917;-76
2023/05/17 09:36:28;;;;;;;;;;;12.00;99.90;;;;;;5023948;28;20004;-76
2023/05/17 09:38:55;;;;;;;;;;;11.80;99.90;;;;;;5021396;28;20331;-77
2023/05/17 09:41:28;;;;;;;;;;;11.70;99.90;;;;;;5001554;28;19943;-76
2023/05/17 09:44:00;;;;;;;;;;;11.70;99.90;;;;;;4996121;28;19909;-76
2023/05/17 09:46:37;;;;;;;;;;;11.80;99.90;;;;;;5023723;28;19905;-76
2023/05/17 09:49:08;;;;;;;;;;;11.70;99.90;;;;;;5003392;28;19913;-76
2023/05/17 09:51:37;;;;;;;;;;;11.60;99.90;;;;;;5003058;28;19905;-77
2023/05/17 09:54:08;;;;;;;;;;;11.50;99.90;;;;;;4997416;28;20014;-76
2023/05/17 09:56:38;;;;;;;;;;;11.40;99.90;;;;;;5003726;28;19904;-76
2023/05/17 09:59:14;;;;;;;;;;;11.50;99.90;;;;;;5005164;28;19912;-77
2023/05/17 10:01:42;;;;;;;;;;;11.50;99.90;;;;;;5024060;28;19916;-76
2023/05/17 10:04:12;;;;;;;;;;;11.40;99.90;;;;;;4995777;28;19905;-77
2023/05/17 10:06:41;;;;;;;;;;;11.40;99.90;;;;;;4999745;28;20308;-76
2023/05/17 10:09:11;;;;;;;;;;;11.40;99.90;;;;;;5000868;28;19999;-76
2023/05/17 10:11:39;;;;;;;;;;;11.30;99.90;;;;;;4994524;28;19996;-77
2023/05/17 10:14:17;;;;;;;;;;;11.30;99.90;;;;;;5020850;28;19956;-76
2023/05/17 10:16:45;;;;;;;;;;;11.30;99.90;;;;;;5022890;28;19909;-76
2023/05/17 10:19:10;;;;;;;;;;;11.20;99.90;;;;;;5030523;28;19962;-76
2023/05/17 10:21:38;;;;;;;;;;;11.20;99.90;;;;;;5025702;28;19913;-76
2023/05/17 10:24:05;;;;;;;;;;;11.10;99.90;;;;;;5011893;28;20717;-76
2023/05/17 10:26:30;;;;;;;;;;;11.00;99.90;;;;;;5025444;28;19949;-77
2023/05/17 10:29:05;;;;;;;;;;;10.90;99.90;;;;;;5029596;28;20363;-76
2023/05/17 10:31:35;;;;;;;;;;;10.90;99.90;;;;;;5026985;28;19913;-76
2023/05/17 10:34:03;;;;;;;;;;;10.90;99.90;;;;;;5007079;28;20496;-76
2023/05/17 10:36:41;;;;;;;;;;;10.90;99.90;;;;;;5030757;28;19945;-76
2023/05/17 10:39:10;;;;;;;;;;;10.90;99.90;;;;;;5011714;28;19990;-77
2023/05/17 10:41:46;;;;;;;;;;;10.90;99.90;;;;;;5028642;28;19913;-76
2023/05/17 10:44:20;;;;;;;;;;;11.00;99.90;;;;;;5020083;28;19905;-76
2023/05/17 10:46:58;;;;;;;;;;;11.00;99.90;;;;;;5010370;28;19913;-76
2023/05/17 10:49:25;;;;;;;;;;;11.00;99.90;;;;;;5000256;28;20429;-76
2023/05/17 10:51:51;;;;;;;;;;;10.90;99.90;;;;;;5025703;28;19915;-76
2023/05/17 10:54:38;;;;;;;;;;;10.90;99.90;;;;;;5032511;28;19920;-76
2023/05/17 10:57:20;;;;;;;;;;;10.90;99.90;;;;;;5025203;28;19913;-76
2023/05/17 11:00:05;;;;;;;;;;;10.90;99.90;;;;;;5025383;28;19913;-76
2023/05/17 11:02:42;;;;;;;;;;;10.90;99.90;;;;;;5027409;28;20396;-77
2023/05/17 11:05:21;;;;;;;;;;;10.90;99.90;;;;;;5028712;28;19926;-76
2023/05/17 11:08:15;;;;;;;;;;;11.00;99.90;;;;;;5028155;28;20002;-76
2023/05/17 11:11:01;;;;;;;;;;;11.10;99.90;;;;;;5005990;28;19911;-77
2023/05/17 11:13:27;;;;;;;;;;;11.00;99.90;;;;;;5025376;28;19996;-76
2023/05/17 11:16:06;;;;;;;;;;;11.10;99.90;;;;;;5026742;28;20465;-75
2023/05/17 11:18:57;;;;;;;;;;;11.20;99.90;;;;;;5026885;28;19913;-77
2023/05/17 11:21:29;;;;;;;;;;;11.20;99.90;;;;;;5028938;28;19920;-76
2023/05/17 11:24:00;;;;;;;;;;;11.10;99.90;;;;;;5002229;28;19909;-76
2023/05/17 11:26:32;;;;;;;;;;;11.00;99.90;;;;;;5001276;28;19909;-75
2023/05/17 11:29:09;;;;;;;;;;;11.00;99.90;;;;;;5025312;28;20423;-76
2023/05/17 11:31:43;;;;;;;;;;;10.90;99.90;;;;;;5026778;28;20078;-76
2023/05/17 11:34:10;;;;;;;;;;;10.90;99.90;;;;;;5019856;28;19959;-76
2023/05/17 11:36:52;;;;;;;;;;;10.90;99.90;;;;;;5025036;28;19919;-76
2023/05/17 11:39:22;;;;;;;;;;;10.80;99.90;;;;;;5008402;28;19912;-76
2023/05/17 11:41:51;;;;;;;;;;;10.70;99.90;;;;;;5026167;28;19911;-76
2023/05/17 11:44:26;;;;;;;;;;;10.80;99.90;;;;;;5003420;28;19913;-76
2023/05/17 11:47:14;;;;;;;;;;;10.80;99.90;;;;;;5025080;28;19905;-76
2023/05/17 11:49:42;;;;;;;;;;;10.70;99.90;;;;;;5017031;28;20268;-76
2023/05/17 11:52:15;;;;;;;;;;;10.70;99.90;;;;;;5024138;28;19909;-77
2023/05/17 11:54:41;;;;;;;;;;;10.70;99.90;;;;;;5020069;28;20000;-76
2023/05/17 11:57:08;;;;;;;;;;;10.90;99.90;;;;;;5027115;28;19904;-76
2023/05/17 11:59:40;;;;;;;;;;;10.90;99.90;;;;;;5004820;28;19909;-77
2023/05/17 12:02:07;;;;;;;;;;;11.00;99.90;;;;;;5005000;28;19908;-76
2023/05/17 12:04:39;;;;;;;;;;;11.00;99.90;;;;;;5025395;28;19970;-77
2023/05/17 12:07:07;;;;;;;;;;;11.10;99.90;;;;;;4998079;28;19978;-76
2023/05/17 12:09:43;;;;;;;;;;;11.30;99.90;;;;;;5025037;28;19911;-76
2023/05/17 12:12:09;;;;;;;;;;;11.30;99.90;;;;;;5007144;28;20347;-76
2023/05/17 12:14:41;;;;;;;;;;;11.40;99.90;;;;;;5025314;28;19915;-76
2023/05/17 12:17:10;;;;;;;;;;;11.50;99.90;;;;;;5021502;28;20263;-77
2023/05/17 12:19:38;;;;;;;;;;;11.40;99.90;;;;;;5007741;28;19909;-76
2023/05/17 12:22:12;;;;;;;;;;;11.30;99.90;;;;;;5019865;28;19915;-76
2023/05/17 12:24:40;;;;;;;;;;;11.30;99.90;;;;;;5001877;28;19902;-76
2023/05/17 12:27:06;;;;;;;;;;;11.20;99.90;;;;;;5006148;28;19968;-76
2023/05/17 12:29:32;;;;;;;;;;;11.10;99.90;;;;;;5028423;28;19908;-72
2023/05/17 12:31:59;;;;;;;;;;;10.90;99.90;;;;;;5006978;28;19919;-72
2023/05/17 12:34:24;;;;;;;;;;;10.90;99.90;;;;;;5022070;28;19908;-73
2023/05/17 12:36:51;;;;;;;;;;;10.90;99.90;;;;;;5002628;28;20339;-73
2023/05/17 12:39:22;;;;;;;;;;;10.80;99.90;;;;;;5025796;28;19920;-72
2023/05/17 12:41:48;;;;;;;;;;;10.80;99.90;;;;;;5003598;28;19913;-73
2023/05/17 12:44:15;;;;;;;;;;;10.80;99.90;;;;;;5025237;28;19909;-73
2023/05/17 12:46:40;;;;;;;;;;;10.90;99.90;;;;;;5024408;28;19905;-72
2023/05/17 12:49:07;;;;;;;;;;;10.90;99.90;;;;;;5025359;28;19916;-72
2023/05/17 12:51:43;;;;;;;;;;;11.00;99.90;;;;;;4998262;28;20382;-73
2023/05/17 12:54:09;;;;;;;;;;;11.00;99.90;;;;;;4998963;28;19913;-73
2023/05/17 12:56:35;;;;;;;;;;;11.10;99.90;;;;;;5023910;28;20639;-73
2023/05/17 12:59:11;;;;;;;;;;;11.20;99.90;;;;;;5029609;28;20041;-73
2023/05/17 13:01:38;;;;;;;;;;;11.20;99.90;;;;;;5020688;28;19908;-72
2023/05/17 13:04:04;;;;;;;;;;;11.00;99.90;;;;;;5023183;28;20431;-73
2023/05/17 13:06:49;;;;;;;;;;;11.00;99.90;;;;;;5025264;28;19920;-72
2023/05/17 13:09:17;;;;;;;;;;;11.00;99.90;;;;;;5020022;28;19920;-73
2023/05/17 13:12:03;;;;;;;;;;;11.00;99.90;;;;;;5020763;28;19920;-72
2023/05/17 13:14:31;;;;;;;;;;;11.10;99.90;;;;;;5024778;28;19928;-72
2023/05/17 13:16:57;;;;;;;;;;;11.10;99.90;;;;;;5021011;28;20293;-73
2023/05/17 13:19:23;;;;;;;;;;;11.30;99.90;;;;;;5026708;28;20382;-72
2023/05/17 13:21:48;;;;;;;;;;;11.30;99.90;;;;;;5021944;28;19948;-72
2023/05/17 13:24:14;;;;;;;;;;;11.30;99.90;;;;;;5022351;28;20345;-73
2023/05/17 13:26:39;;;;;;;;;;;11.20;99.90;;;;;;5023004;28;19905;-71
2023/05/17 13:29:05;;;;;;;;;;;11.10;99.90;;;;;;5024617;28;19913;-73
2023/05/17 13:31:30;;;;;;;;;;;10.90;99.90;;;;;;5023484;28;20020;-72
2023/05/17 13:33:56;;;;;;;;;;;11.00;99.90;;;;;;5027027;28;20003;-72
2023/05/17 13:36:23;;;;;;;;;;;10.90;99.90;;;;;;5021658;28;19967;-72
2023/05/17 13:38:48;;;;;;;;;;;10.90;99.90;;;;;;5021335;28;20606;-72
2023/05/17 13:41:14;;;;;;;;;;;10.80;99.90;;;;;;5023530;28;19952;-72
2023/05/17 13:43:40;;;;;;;;;;;10.80;99.90;;;;;;5021307;28;19927;-73
2023/05/17 13:46:06;;;;;;;;;;;10.70;99.90;;;;;;5006933;28;19916;-72
2023/05/17 13:48:31;;;;;;;;;;;10.70;99.90;;;;;;4998178;28;20409;-73
2023/05/17 13:50:57;;;;;;;;;;;10.60;99.90;;;;;;5026752;28;19916;-72
2023/05/17 13:53:22;;;;;;;;;;;10.50;99.90;;;;;;5011151;28;19917;-72
2023/05/17 13:55:48;;;;;;;;;;;10.50;99.90;;;;;;5027622;28;20682;-73
2023/05/17 13:58:15;;;;;;;;;;;10.40;99.90;;;;;;5029583;28;19905;-72
2023/05/17 14:00:42;;;;;;;;;;;10.30;99.90;;;;;;5021756;28;19905;-73
2023/05/17 14:03:09;;;;;;;;;;;10.40;99.90;;;;;;5022023;28;19905;-72
2023/05/17 14:05:35;;;;;;;;;;;10.30;99.90;;;;;;5027713;28;20377;-72
2023/05/17 14:08:01;;;;;;;;;;;10.30;99.90;;;;;;5028121;28;20256;-72
2023/05/17 14:10:27;;;;;;;;;;;10.30;99.90;;;;;;5009321;28;19916;-72
2023/05/17 14:12:53;;;;;;;;;;;10.30;99.90;;;;;;5025538;28;19913;-73
2023/05/17 14:15:20;;;;;;;;;;;10.30;99.90;;;;;;5026839;28;19909;-72
2023/05/17 14:17:46;;;;;;;;;;;10.30;99.90;;;;;;5023024;28;19913;-73
2023/05/17 14:20:13;;;;;;;;;;;10.30;99.90;;;;;;5007655;28;19912;-73
2023/05/17 14:22:39;;;;;;;;;;;10.30;99.90;;;;;;5002281;28;19909;-73
2023/05/17 14:25:05;;;;;;;;;;;10.40;99.90;;;;;;5026763;28;20339;-73
2023/05/17 14:27:32;;;;;;;;;;;10.40;99.90;;;;;;5027654;28;20043;-72
2023/05/17 14:29:57;;;;;;;;;;;10.40;99.90;;;;;;5023174;28;19909;-73
2023/05/17 14:32:23;;;;;;;;;;;10.40;99.90;;;;;;5032038;28;19916;-72
2023/05/17 14:34:48;;;;;;;;;;;10.50;99.90;;;;;;5024112;28;20378;-73